sensor_id;sensor_type;location;lat;lon;timestamp;P1;durP1;ratioP1;P2;durP2;ratioP2
72132;SDS011;60008;50.826;6.896;2023-02-20T00:01:18;10.17;;;3.73;;
72132;SDS011;60008;50.826;6.896;2023-02-20T00:04:03;10.60;;;4.10;;
72132;SDS011;60008;50.826;6.896;2023-02-20T00:06:48;9.00;;;4.40;;
72132;SDS011;60008;50.826;6.896;2023-02-20T00:09:33;10.00;;;4.25;;
72132;SDS011;60008;50.826;6.896;2023-02-20T00:12:18;9.73;;;3.95;;
72132;SDS011;60008;50.826;6.896;2023-02-20T00:15:03;8.30;;;3.87;;
72132;SDS011;60008;50.826;6.896;2023-02-20T00:17:49;11.43;;;4.82;;
72132;SDS011;60008;50.826;6.896;2023-02-20T00:20:35;12.00;;;4.55;;
72132;SDS011;60008;50.826;6.896;2023-02-20T00:23:21;10.57;;;4.07;;
72132;SDS011;60008;50.826;6.896;2023-02-20T00:26:09;8.68;;;4.28;;
72132;SDS011;60008;50.826;6.896;2023-02-20T00:28:55;9.90;;;4.43;;
72132;SDS011;60008;50.826;6.896;2023-02-20T00:31:40;11.38;;;4.68;;
72132;SDS011;60008;50.826;6.896;2023-02-20T00:34:26;11.38;;;4.85;;
72132;SDS011;60008;50.826;6.896;2023-02-20T00:37:12;9.18;;;3.90;;
72132;SDS011;60008;50.826;6.896;2023-02-20T00:39:57;9.40;;;4.55;;
72132;SDS011;60008;50.826;6.896;2023-02-20T00:42:42;12.40;;;4.13;;
72132;SDS011;60008;50.826;6.896;2023-02-20T00:45:28;11.57;;;4.55;;
72132;SDS011;60008;50.826;6.896;2023-02-20T00:48:13;10.68;;;4.60;;
72132;SDS011;60008;50.826;6.896;2023-02-20T00:50:58;10.40;;;4.50;;
72132;SDS011;60008;50.826;6.896;2023-02-20T00:53:43;13.93;;;5.97;;
72132;SDS011;60008;50.826;6.896;2023-02-20T00:56:28;11.37;;;5.77;;
72132;SDS011;60008;50.826;6.896;2023-02-20T00:59:13;11.80;;;5.50;;
72132;SDS011;60008;50.826;6.896;2023-02-20T01:01:58;12.40;;;5.55;;
72132;SDS011;60008;50.826;6.896;2023-02-20T01:04:43;12.82;;;5.45;;
72132;SDS011;60008;50.826;6.896;2023-02-20T01:07:28;10.48;;;5.03;;
72132;SDS011;60008;50.826;6.896;2023-02-20T01:10:13;11.37;;;4.67;;
72132;SDS011;60008;50.826;6.896;2023-02-20T01:12:59;10.35;;;5.07;;
72132;SDS011;60008;50.826;6.896;2023-02-20T01:15:44;11.43;;;4.80;;
72132;SDS011;60008;50.826;6.896;2023-02-20T01:18:29;10.88;;;4.75;;
72132;SDS011;60008;50.826;6.896;2023-02-20T01:21:13;10.55;;;5.05;;
72132;SDS011;60008;50.826;6.896;2023-02-20T01:23:59;11.53;;;5.10;;
72132;SDS011;60008;50.826;6.896;2023-02-20T01:26:44;10.35;;;4.97;;
72132;SDS011;60008;50.826;6.896;2023-02-20T01:29:30;10.55;;;4.68;;
72132;SDS011;60008;50.826;6.896;2023-02-20T01:32:15;12.32;;;4.82;;
72132;SDS011;60008;50.826;6.896;2023-02-20T01:35:00;11.23;;;4.65;;
72132;SDS011;60008;50.826;6.896;2023-02-20T01:37:45;12.43;;;4.63;;
72132;SDS011;60008;50.826;6.896;2023-02-20T01:40:31;8.73;;;4.22;;
72132;SDS011;60008;50.826;6.896;2023-02-20T01:43:16;10.25;;;4.78;;
72132;SDS011;60008;50.826;6.896;2023-02-20T01:49:12;9.15;;;4.63;;
72132;SDS011;60008;50.826;6.896;2023-02-20T01:52:02;8.87;;;4.23;;
72132;SDS011;60008;50.826;6.896;2023-02-20T01:55:05;11.52;;;4.60;;
72132;SDS011;60008;50.826;6.896;2023-02-20T01:58:02;9.02;;;3.95;;
72132;SDS011;60008;50.826;6.896;2023-02-20T02:00:53;9.25;;;3.97;;
72132;SDS011;60008;50.826;6.896;2023-02-20T02:03:40;9.27;;;3.78;;
72132;SDS011;60008;50.826;6.896;2023-02-20T02:06:29;7.00;;;3.03;;
72132;SDS011;60008;50.826;6.896;2023-02-20T02:09:20;9.20;;;3.03;;
72132;SDS011;60008;50.826;6.896;2023-02-20T02:12:07;8.35;;;2.92;;
72132;SDS011;60008;50.826;6.896;2023-02-20T02:14:53;6.00;;;2.95;;
72132;SDS011;60008;50.826;6.896;2023-02-20T02:17:42;7.95;;;2.83;;
72132;SDS011;60008;50.826;6.896;2023-02-20T02:30:02;9.43;;;2.90;;
72132;SDS011;60008;50.826;6.896;2023-02-20T02:38:59;5.55;;;1.90;;
72132;SDS011;60008;50.826;6.896;2023-02-20T02:44:57;6.15;;;2.47;;
72132;SDS011;60008;50.826;6.896;2023-02-20T02:47:55;6.45;;;2.50;;
72132;SDS011;60008;50.826;6.896;2023-02-20T02:50:47;7.53;;;2.87;;
72132;SDS011;60008;50.826;6.896;2023-02-20T02:53:36;5.18;;;2.03;;
72132;SDS011;60008;50.826;6.896;2023-02-20T02:56:31;4.88;;;2.25;;
72132;SDS011;60008;50.826;6.896;2023-02-20T02:59:24;8.75;;;2.35;;
72132;SDS011;60008;50.826;6.896;2023-02-20T03:02:16;7.00;;;2.60;;
72132;SDS011;60008;50.826;6.896;2023-02-20T03:05:04;6.50;;;2.00;;
72132;SDS011;60008;50.826;6.896;2023-02-20T03:07:53;6.22;;;2.45;;
72132;SDS011;60008;50.826;6.896;2023-02-20T03:10:41;7.38;;;2.72;;
72132;SDS011;60008;50.826;6.896;2023-02-20T03:13:28;8.55;;;2.58;;
72132;SDS011;60008;50.826;6.896;2023-02-20T03:16:44;7.30;;;2.65;;
72132;SDS011;60008;50.826;6.896;2023-02-20T03:19:35;6.47;;;2.53;;
72132;SDS011;60008;50.826;6.896;2023-02-20T03:22:26;5.70;;;2.45;;
72132;SDS011;60008;50.826;6.896;2023-02-20T03:25:20;6.72;;;2.83;;
72132;SDS011;60008;50.826;6.896;2023-02-20T03:28:16;8.00;;;2.50;;
72132;SDS011;60008;50.826;6.896;2023-02-20T03:33:59;9.77;;;3.20;;
72132;SDS011;60008;50.826;6.896;2023-02-20T03:37:13;7.18;;;2.53;;
72132;SDS011;60008;50.826;6.896;2023-02-20T03:40:20;6.60;;;2.53;;
72132;SDS011;60008;50.826;6.896;2023-02-20T03:43:26;5.40;;;2.47;;
72132;SDS011;60008;50.826;6.896;2023-02-20T03:46:16;5.35;;;1.95;;
72132;SDS011;60008;50.826;6.896;2023-02-20T03:49:07;6.70;;;2.23;;
72132;SDS011;60008;50.826;6.896;2023-02-20T03:52:15;6.28;;;2.38;;
72132;SDS011;60008;50.826;6.896;2023-02-20T03:55:02;6.25;;;2.67;;
72132;SDS011;60008;50.826;6.896;2023-02-20T03:57:49;7.85;;;2.50;;
72132;SDS011;60008;50.826;6.896;2023-02-20T04:00:38;8.25;;;2.88;;
72132;SDS011;60008;50.826;6.896;2023-02-20T04:03:28;5.30;;;1.77;;
72132;SDS011;60008;50.826;6.896;2023-02-20T04:06:17;8.07;;;2.53;;
72132;SDS011;60008;50.826;6.896;2023-02-20T04:09:09;6.78;;;2.53;;
72132;SDS011;60008;50.826;6.896;2023-02-20T04:12:32;7.95;;;2.25;;
72132;SDS011;60008;50.826;6.896;2023-02-20T04:15:11;6.40;;;2.25;;
72132;SDS011;60008;50.826;6.896;2023-02-20T04:17:58;7.60;;;2.50;;
72132;SDS011;60008;50.826;6.896;2023-02-20T04:20:48;9.35;;;2.78;;
72132;SDS011;60008;50.826;6.896;2023-02-20T04:23:39;7.78;;;2.53;;
72132;SDS011;60008;50.826;6.896;2023-02-20T04:26:26;6.38;;;2.42;;
72132;SDS011;60008;50.826;6.896;2023-02-20T04:29:11;6.57;;;2.60;;
72132;SDS011;60008;50.826;6.896;2023-02-20T04:31:57;7.63;;;2.43;;
72132;SDS011;60008;50.826;6.896;2023-02-20T04:34:42;6.55;;;2.42;;
72132;SDS011;60008;50.826;6.896;2023-02-20T04:37:28;7.72;;;2.70;;
72132;SDS011;60008;50.826;6.896;2023-02-20T04:40:13;5.85;;;2.13;;
72132;SDS011;60008;50.826;6.896;2023-02-20T04:43:00;5.18;;;2.25;;
72132;SDS011;60008;50.826;6.896;2023-02-20T04:45:45;5.07;;;2.00;;
72132;SDS011;60008;50.826;6.896;2023-02-20T04:48:31;6.93;;;2.20;;
72132;SDS011;60008;50.826;6.896;2023-02-20T04:51:16;6.35;;;2.30;;
72132;SDS011;60008;50.826;6.896;2023-02-20T04:54:01;5.55;;;2.40;;
72132;SDS011;60008;50.826;6.896;2023-02-20T04:56:45;6.22;;;1.80;;
72132;SDS011;60008;50.826;6.896;2023-02-20T04:59:31;5.73;;;2.23;;
72132;SDS011;60008;50.826;6.896;2023-02-20T05:02:16;5.40;;;2.00;;
72132;SDS011;60008;50.826;6.896;2023-02-20T05:05:00;6.65;;;2.47;;
72132;SDS011;60008;50.826;6.896;2023-02-20T05:07:45;7.13;;;2.88;;
72132;SDS011;60008;50.826;6.896;2023-02-20T05:10:31;8.25;;;3.10;;
72132;SDS011;60008;50.826;6.896;2023-02-20T05:13:18;12.10;;;3.03;;
72132;SDS011;60008;50.826;6.896;2023-02-20T05:16:03;8.77;;;3.00;;
72132;SDS011;60008;50.826;6.896;2023-02-20T05:18:48;7.75;;;2.80;;
72132;SDS011;60008;50.826;6.896;2023-02-20T05:21:33;9.18;;;3.03;;
72132;SDS011;60008;50.826;6.896;2023-02-20T05:24:37;8.60;;;3.40;;
72132;SDS011;60008;50.826;6.896;2023-02-20T05:27:22;10.60;;;3.20;;
72132;SDS011;60008;50.826;6.896;2023-02-20T05:30:08;8.32;;;3.45;;
72132;SDS011;60008;50.826;6.896;2023-02-20T05:32:54;10.57;;;3.22;;
72132;SDS011;60008;50.826;6.896;2023-02-20T05:35:39;11.02;;;3.17;;
72132;SDS011;60008;50.826;6.896;2023-02-20T05:38:25;8.90;;;3.35;;
72132;SDS011;60008;50.826;6.896;2023-02-20T05:41:10;7.20;;;3.07;;
72132;SDS011;60008;50.826;6.896;2023-02-20T05:43:55;9.52;;;3.53;;
72132;SDS011;60008;50.826;6.896;2023-02-20T05:46:43;8.32;;;3.13;;
72132;SDS011;60008;50.826;6.896;2023-02-20T05:49:28;8.80;;;3.55;;
72132;SDS011;60008;50.826;6.896;2023-02-20T05:52:13;9.45;;;3.30;;
72132;SDS011;60008;50.826;6.896;2023-02-20T05:54:58;10.20;;;3.57;;
72132;SDS011;60008;50.826;6.896;2023-02-20T05:57:43;7.47;;;3.08;;
72132;SDS011;60008;50.826;6.896;2023-02-20T06:00:28;9.20;;;3.72;;
72132;SDS011;60008;50.826;6.896;2023-02-20T06:03:14;9.93;;;3.83;;
72132;SDS011;60008;50.826;6.896;2023-02-20T06:05:59;13.43;;;3.50;;
72132;SDS011;60008;50.826;6.896;2023-02-20T06:08:44;9.03;;;3.77;;
72132;SDS011;60008;50.826;6.896;2023-02-20T06:11:29;8.82;;;3.45;;
72132;SDS011;60008;50.826;6.896;2023-02-20T06:14:14;7.78;;;3.33;;
72132;SDS011;60008;50.826;6.896;2023-02-20T06:16:59;8.75;;;3.63;;
72132;SDS011;60008;50.826;6.896;2023-02-20T06:19:44;10.95;;;3.65;;
72132;SDS011;60008;50.826;6.896;2023-02-20T06:22:29;7.30;;;3.70;;
72132;SDS011;60008;50.826;6.896;2023-02-20T06:25:14;12.57;;;3.85;;
72132;SDS011;60008;50.826;6.896;2023-02-20T06:27:59;7.60;;;3.50;;
72132;SDS011;60008;50.826;6.896;2023-02-20T06:30:44;10.18;;;3.63;;
72132;SDS011;60008;50.826;6.896;2023-02-20T06:33:29;10.55;;;3.50;;
72132;SDS011;60008;50.826;6.896;2023-02-20T06:36:24;8.10;;;3.63;;
72132;SDS011;60008;50.826;6.896;2023-02-20T06:39:12;9.98;;;3.63;;
72132;SDS011;60008;50.826;6.896;2023-02-20T06:41:57;8.35;;;3.55;;
72132;SDS011;60008;50.826;6.896;2023-02-20T06:44:42;9.95;;;3.72;;
72132;SDS011;60008;50.826;6.896;2023-02-20T06:47:27;10.02;;;3.50;;
72132;SDS011;60008;50.826;6.896;2023-02-20T06:50:12;9.50;;;3.33;;
72132;SDS011;60008;50.826;6.896;2023-02-20T06:52:58;10.68;;;3.55;;
72132;SDS011;60008;50.826;6.896;2023-02-20T06:55:43;11.35;;;3.65;;
72132;SDS011;60008;50.826;6.896;2023-02-20T06:58:28;8.10;;;3.88;;
72132;SDS011;60008;50.826;6.896;2023-02-20T07:01:14;9.48;;;3.35;;
72132;SDS011;60008;50.826;6.896;2023-02-20T07:04:00;6.93;;;2.90;;
72132;SDS011;60008;50.826;6.896;2023-02-20T07:06:46;9.90;;;3.00;;
72132;SDS011;60008;50.826;6.896;2023-02-20T07:09:31;8.73;;;3.05;;
72132;SDS011;60008;50.826;6.896;2023-02-20T07:12:16;9.20;;;3.35;;
72132;SDS011;60008;50.826;6.896;2023-02-20T07:15:02;8.70;;;4.00;;
72132;SDS011;60008;50.826;6.896;2023-02-20T07:17:47;9.93;;;3.70;;
72132;SDS011;60008;50.826;6.896;2023-02-20T07:20:32;12.35;;;4.65;;
72132;SDS011;60008;50.826;6.896;2023-02-20T07:23:18;10.70;;;4.85;;
72132;SDS011;60008;50.826;6.896;2023-02-20T07:26:03;12.55;;;4.80;;
72132;SDS011;60008;50.826;6.896;2023-02-20T07:28:48;13.18;;;5.40;;
72132;SDS011;60008;50.826;6.896;2023-02-20T07:31:33;11.30;;;4.70;;
72132;SDS011;60008;50.826;6.896;2023-02-20T07:34:18;14.15;;;5.10;;
72132;SDS011;60008;50.826;6.896;2023-02-20T07:37:03;10.35;;;4.22;;
72132;SDS011;60008;50.826;6.896;2023-02-20T07:39:48;12.50;;;5.28;;
72132;SDS011;60008;50.826;6.896;2023-02-20T07:42:33;11.88;;;4.63;;
72132;SDS011;60008;50.826;6.896;2023-02-20T07:45:18;12.47;;;4.87;;
72132;SDS011;60008;50.826;6.896;2023-02-20T07:48:03;12.13;;;4.50;;
72132;SDS011;60008;50.826;6.896;2023-02-20T07:50:49;10.93;;;4.10;;
72132;SDS011;60008;50.826;6.896;2023-02-20T07:53:34;10.43;;;4.65;;
72132;SDS011;60008;50.826;6.896;2023-02-20T07:56:19;13.02;;;4.35;;
72132;SDS011;60008;50.826;6.896;2023-02-20T07:59:05;11.63;;;4.20;;
72132;SDS011;60008;50.826;6.896;2023-02-20T08:01:51;10.40;;;3.75;;
72132;SDS011;60008;50.826;6.896;2023-02-20T08:04:35;6.40;;;2.78;;
72132;SDS011;60008;50.826;6.896;2023-02-20T08:07:20;8.57;;;3.10;;
72132;SDS011;60008;50.826;6.896;2023-02-20T08:10:05;8.38;;;2.85;;
72132;SDS011;60008;50.826;6.896;2023-02-20T08:12:51;10.10;;;2.23;;
72132;SDS011;60008;50.826;6.896;2023-02-20T08:15:37;6.50;;;2.13;;
72132;SDS011;60008;50.826;6.896;2023-02-20T08:18:22;6.03;;;2.17;;
72132;SDS011;60008;50.826;6.896;2023-02-20T08:21:08;7.53;;;2.65;;
72132;SDS011;60008;50.826;6.896;2023-02-20T08:23:53;9.00;;;2.42;;
72132;SDS011;60008;50.826;6.896;2023-02-20T08:26:42;8.93;;;2.20;;
72132;SDS011;60008;50.826;6.896;2023-02-20T08:29:28;9.93;;;2.55;;
72132;SDS011;60008;50.826;6.896;2023-02-20T08:32:13;9.63;;;2.15;;
72132;SDS011;60008;50.826;6.896;2023-02-20T08:34:59;5.68;;;1.80;;
72132;SDS011;60008;50.826;6.896;2023-02-20T08:37:44;9.27;;;2.25;;
72132;SDS011;60008;50.826;6.896;2023-02-20T08:40:29;7.47;;;2.20;;
72132;SDS011;60008;50.826;6.896;2023-02-20T08:43:14;5.95;;;2.33;;
72132;SDS011;60008;50.826;6.896;2023-02-20T08:45:59;6.82;;;2.97;;
72132;SDS011;60008;50.826;6.896;2023-02-20T08:48:45;7.70;;;2.45;;
72132;SDS011;60008;50.826;6.896;2023-02-20T08:51:30;6.65;;;2.80;;
72132;SDS011;60008;50.826;6.896;2023-02-20T08:54:15;10.13;;;2.70;;
72132;SDS011;60008;50.826;6.896;2023-02-20T08:57:00;9.55;;;2.90;;
72132;SDS011;60008;50.826;6.896;2023-02-20T08:59:45;7.55;;;2.70;;
72132;SDS011;60008;50.826;6.896;2023-02-20T09:02:30;8.55;;;2.90;;
72132;SDS011;60008;50.826;6.896;2023-02-20T09:05:15;6.95;;;3.17;;
72132;SDS011;60008;50.826;6.896;2023-02-20T09:08:01;6.03;;;2.60;;
72132;SDS011;60008;50.826;6.896;2023-02-20T09:10:46;9.25;;;3.40;;
72132;SDS011;60008;50.826;6.896;2023-02-20T09:13:31;8.93;;;2.90;;
72132;SDS011;60008;50.826;6.896;2023-02-20T09:16:20;7.53;;;3.10;;
72132;SDS011;60008;50.826;6.896;2023-02-20T09:19:07;8.80;;;3.25;;
72132;SDS011;60008;50.826;6.896;2023-02-20T09:21:53;8.50;;;3.30;;
72132;SDS011;60008;50.826;6.896;2023-02-20T09:24:38;6.50;;;3.08;;
72132;SDS011;60008;50.826;6.896;2023-02-20T09:27:23;8.35;;;3.28;;
72132;SDS011;60008;50.826;6.896;2023-02-20T09:30:08;9.15;;;3.30;;
72132;SDS011;60008;50.826;6.896;2023-02-20T09:32:56;9.10;;;3.45;;
72132;SDS011;60008;50.826;6.896;2023-02-20T09:35:40;7.13;;;3.13;;
72132;SDS011;60008;50.826;6.896;2023-02-20T09:38:26;11.32;;;4.55;;
72132;SDS011;60008;50.826;6.896;2023-02-20T09:41:19;9.60;;;3.28;;
72132;SDS011;60008;50.826;6.896;2023-02-20T09:50:54;9.13;;;3.47;;
72132;SDS011;60008;50.826;6.896;2023-02-20T09:56:52;8.40;;;3.13;;
72132;SDS011;60008;50.826;6.896;2023-02-20T09:59:52;7.15;;;3.15;;
72132;SDS011;60008;50.826;6.896;2023-02-20T10:02:45;8.23;;;3.40;;
72132;SDS011;60008;50.826;6.896;2023-02-20T10:05:38;8.83;;;3.40;;
72132;SDS011;60008;50.826;6.896;2023-02-20T10:08:25;7.22;;;3.20;;
72132;SDS011;60008;50.826;6.896;2023-02-20T10:11:11;8.95;;;3.33;;
72132;SDS011;60008;50.826;6.896;2023-02-20T10:23:00;7.30;;;3.38;;
72132;SDS011;60008;50.826;6.896;2023-02-20T10:25:53;7.57;;;3.50;;
72132;SDS011;60008;50.826;6.896;2023-02-20T10:28:42;5.30;;;2.80;;
72132;SDS011;60008;50.826;6.896;2023-02-20T10:37:39;9.32;;;3.80;;
72132;SDS011;60008;50.826;6.896;2023-02-20T10:40:35;8.43;;;4.00;;
72132;SDS011;60008;50.826;6.896;2023-02-20T10:43:27;8.90;;;3.70;;
72132;SDS011;60008;50.826;6.896;2023-02-20T10:46:25;9.38;;;4.20;;
72132;SDS011;60008;50.826;6.896;2023-02-20T10:49:37;9.57;;;3.63;;
72132;SDS011;60008;50.826;6.896;2023-02-20T10:52:29;7.78;;;4.03;;
72132;SDS011;60008;50.826;6.896;2023-02-20T10:55:24;9.98;;;4.30;;
72132;SDS011;60008;50.826;6.896;2023-02-20T10:58:18;8.60;;;3.97;;
72132;SDS011;60008;50.826;6.896;2023-02-20T11:01:10;7.60;;;4.00;;
72132;SDS011;60008;50.826;6.896;2023-02-20T11:04:04;6.47;;;3.53;;
72132;SDS011;60008;50.826;6.896;2023-02-20T11:06:58;9.50;;;4.15;;
72132;SDS011;60008;50.826;6.896;2023-02-20T11:09:46;9.85;;;3.65;;
72132;SDS011;60008;50.826;6.896;2023-02-20T11:12:33;8.15;;;4.35;;
72132;SDS011;60008;50.826;6.896;2023-02-20T11:15:24;11.68;;;4.57;;
72132;SDS011;60008;50.826;6.896;2023-02-20T11:18:22;10.13;;;3.80;;
72132;SDS011;60008;50.826;6.896;2023-02-20T11:21:31;8.57;;;4.55;;
72132;SDS011;60008;50.826;6.896;2023-02-20T11:24:31;8.93;;;4.15;;
72132;SDS011;60008;50.826;6.896;2023-02-20T11:27:19;13.35;;;4.75;;
72132;SDS011;60008;50.826;6.896;2023-02-20T11:33:16;11.37;;;4.90;;
72132;SDS011;60008;50.826;6.896;2023-02-20T11:36:11;9.00;;;4.28;;
72132;SDS011;60008;50.826;6.896;2023-02-20T11:42:12;9.05;;;4.55;;
72132;SDS011;60008;50.826;6.896;2023-02-20T11:45:10;9.80;;;3.88;;
72132;SDS011;60008;50.826;6.896;2023-02-20T11:48:16;12.47;;;5.13;;
72132;SDS011;60008;50.826;6.896;2023-02-20T11:51:03;10.23;;;4.25;;
72132;SDS011;60008;50.826;6.896;2023-02-20T11:53:49;10.88;;;4.55;;
72132;SDS011;60008;50.826;6.896;2023-02-20T11:56:52;10.07;;;4.47;;
72132;SDS011;60008;50.826;6.896;2023-02-20T11:59:39;10.05;;;4.82;;
72132;SDS011;60008;50.826;6.896;2023-02-20T12:02:26;11.63;;;5.13;;
72132;SDS011;60008;50.826;6.896;2023-02-20T12:05:13;12.82;;;5.38;;
72132;SDS011;60008;50.826;6.896;2023-02-20T12:07:59;5.75;;;2.67;;
72132;SDS011;60008;50.826;6.896;2023-02-20T12:10:45;10.55;;;4.85;;
72132;SDS011;60008;50.826;6.896;2023-02-20T12:13:39;11.63;;;4.72;;
72132;SDS011;60008;50.826;6.896;2023-02-20T12:19:22;9.23;;;4.03;;
72132;SDS011;60008;50.826;6.896;2023-02-20T12:22:36;14.18;;;5.30;;
72132;SDS011;60008;50.826;6.896;2023-02-20T12:25:26;10.07;;;4.90;;
72132;SDS011;60008;50.826;6.896;2023-02-20T12:28:21;9.88;;;3.63;;
72132;SDS011;60008;50.826;6.896;2023-02-20T12:31:34;11.43;;;4.27;;
72132;SDS011;60008;50.826;6.896;2023-02-20T12:44:19;11.60;;;5.60;;
72132;SDS011;60008;50.826;6.896;2023-02-20T12:51:11;13.38;;;5.05;;
72132;SDS011;60008;50.826;6.896;2023-02-20T12:53:52;15.90;;;5.93;;
72132;SDS011;60008;50.826;6.896;2023-02-20T12:59:50;12.75;;;4.40;;
72132;SDS011;60008;50.826;6.896;2023-02-20T13:02:45;12.10;;;4.40;;
72132;SDS011;60008;50.826;6.896;2023-02-20T13:05:33;12.32;;;5.50;;
72132;SDS011;60008;50.826;6.896;2023-02-20T13:08:26;14.48;;;5.05;;
72132;SDS011;60008;50.826;6.896;2023-02-20T13:11:16;10.25;;;4.57;;
72132;SDS011;60008;50.826;6.896;2023-02-20T13:20:14;11.88;;;4.78;;
72132;SDS011;60008;50.826;6.896;2023-02-20T13:26:02;14.32;;;5.50;;
72132;SDS011;60008;50.826;6.896;2023-02-20T13:29:14;14.18;;;4.97;;
72132;SDS011;60008;50.826;6.896;2023-02-20T13:32:03;12.67;;;4.87;;
72132;SDS011;60008;50.826;6.896;2023-02-20T13:38:25;10.90;;;4.88;;
72132;SDS011;60008;50.826;6.896;2023-02-20T13:41:12;14.40;;;5.72;;
72132;SDS011;60008;50.826;6.896;2023-02-20T13:44:13;14.98;;;5.10;;
72132;SDS011;60008;50.826;6.896;2023-02-20T13:47:27;12.97;;;4.63;;
72132;SDS011;60008;50.826;6.896;2023-02-20T13:50:28;13.98;;;5.05;;
72132;SDS011;60008;50.826;6.896;2023-02-20T13:53:14;10.30;;;4.07;;
72132;SDS011;60008;50.826;6.896;2023-02-20T13:56:00;10.45;;;3.92;;
72132;SDS011;60008;50.826;6.896;2023-02-20T13:58:44;11.07;;;4.97;;
72132;SDS011;60008;50.826;6.896;2023-02-20T14:01:42;14.43;;;5.43;;
72132;SDS011;60008;50.826;6.896;2023-02-20T14:07:47;13.00;;;5.45;;
72132;SDS011;60008;50.826;6.896;2023-02-20T14:10:34;19.38;;;5.00;;
72132;SDS011;60008;50.826;6.896;2023-02-20T14:13:21;11.10;;;4.32;;
72132;SDS011;60008;50.826;6.896;2023-02-20T14:19:26;15.95;;;5.85;;
72132;SDS011;60008;50.826;6.896;2023-02-20T14:34:26;15.10;;;5.65;;
72132;SDS011;60008;50.826;6.896;2023-02-20T14:37:48;17.17;;;5.30;;
72132;SDS011;60008;50.826;6.896;2023-02-20T14:40:51;12.43;;;5.45;;
72132;SDS011;60008;50.826;6.896;2023-02-20T14:43:36;13.55;;;4.45;;
72132;SDS011;60008;50.826;6.896;2023-02-20T14:46:26;13.33;;;4.80;;
72132;SDS011;60008;50.826;6.896;2023-02-20T14:49:15;14.35;;;5.28;;
72132;SDS011;60008;50.826;6.896;2023-02-20T14:54:55;12.18;;;4.85;;
72132;SDS011;60008;50.826;6.896;2023-02-20T14:57:47;13.82;;;5.70;;
72132;SDS011;60008;50.826;6.896;2023-02-20T15:00:34;10.60;;;4.30;;
72132;SDS011;60008;50.826;6.896;2023-02-20T15:03:22;14.18;;;5.47;;
72132;SDS011;60008;50.826;6.896;2023-02-20T15:06:14;12.77;;;5.38;;
72132;SDS011;60008;50.826;6.896;2023-02-20T15:09:00;12.55;;;4.85;;
72132;SDS011;60008;50.826;6.896;2023-02-20T15:12:03;10.15;;;4.95;;
72132;SDS011;60008;50.826;6.896;2023-02-20T15:14:56;16.47;;;5.20;;
72132;SDS011;60008;50.826;6.896;2023-02-20T15:17:44;11.18;;;4.50;;
72132;SDS011;60008;50.826;6.896;2023-02-20T15:23:24;15.15;;;5.50;;
72132;SDS011;60008;50.826;6.896;2023-02-20T15:26:30;13.18;;;5.47;;
72132;SDS011;60008;50.826;6.896;2023-02-20T15:29:20;10.37;;;4.30;;
72132;SDS011;60008;50.826;6.896;2023-02-20T15:32:18;12.32;;;4.90;;
72132;SDS011;60008;50.826;6.896;2023-02-20T15:35:12;13.10;;;5.22;;
72132;SDS011;60008;50.826;6.896;2023-02-20T15:38:02;11.90;;;4.95;;
72132;SDS011;60008;50.826;6.896;2023-02-20T15:40:54;14.95;;;5.68;;
72132;SDS011;60008;50.826;6.896;2023-02-20T15:43:40;20.33;;;6.20;;
72132;SDS011;60008;50.826;6.896;2023-02-20T15:46:35;15.55;;;6.13;;
72132;SDS011;60008;50.826;6.896;2023-02-20T15:49:21;18.23;;;6.00;;
72132;SDS011;60008;50.826;6.896;2023-02-20T15:52:06;13.52;;;5.32;;
72132;SDS011;60008;50.826;6.896;2023-02-20T15:54:57;16.98;;;5.68;;
72132;SDS011;60008;50.826;6.896;2023-02-20T15:57:48;12.33;;;5.97;;
72132;SDS011;60008;50.826;6.896;2023-02-20T16:00:34;11.93;;;5.47;;
72132;SDS011;60008;50.826;6.896;2023-02-20T16:03:19;14.30;;;6.03;;
72132;SDS011;60008;50.826;6.896;2023-02-20T16:06:05;15.75;;;6.15;;
72132;SDS011;60008;50.826;6.896;2023-02-20T16:08:51;14.10;;;5.63;;
72132;SDS011;60008;50.826;6.896;2023-02-20T16:11:37;14.63;;;6.77;;
72132;SDS011;60008;50.826;6.896;2023-02-20T16:14:25;19.63;;;7.75;;
72132;SDS011;60008;50.826;6.896;2023-02-20T16:17:14;16.70;;;6.88;;
72132;SDS011;60008;50.826;6.896;2023-02-20T16:20:16;18.52;;;7.03;;
72132;SDS011;60008;50.826;6.896;2023-02-20T16:23:02;18.83;;;7.63;;
72132;SDS011;60008;50.826;6.896;2023-02-20T16:25:49;20.13;;;7.03;;
72132;SDS011;60008;50.826;6.896;2023-02-20T16:28:34;17.45;;;7.22;;
72132;SDS011;60008;50.826;6.896;2023-02-20T16:31:19;19.27;;;7.00;;
72132;SDS011;60008;50.826;6.896;2023-02-20T16:34:04;17.48;;;6.40;;
72132;SDS011;60008;50.826;6.896;2023-02-20T16:37:07;17.65;;;7.10;;
72132;SDS011;60008;50.826;6.896;2023-02-20T16:39:54;18.23;;;7.17;;
72132;SDS011;60008;50.826;6.896;2023-02-20T16:42:39;17.50;;;7.20;;
72132;SDS011;60008;50.826;6.896;2023-02-20T16:45:24;14.35;;;6.25;;
72132;SDS011;60008;50.826;6.896;2023-02-20T16:48:14;13.70;;;6.00;;
72132;SDS011;60008;50.826;6.896;2023-02-20T16:51:02;14.32;;;6.05;;
72132;SDS011;60008;50.826;6.896;2023-02-20T16:53:50;17.63;;;7.50;;
72132;SDS011;60008;50.826;6.896;2023-02-20T16:56:34;14.98;;;6.35;;
72132;SDS011;60008;50.826;6.896;2023-02-20T16:59:19;19.02;;;7.75;;
72132;SDS011;60008;50.826;6.896;2023-02-20T17:02:06;15.98;;;7.35;;
72132;SDS011;60008;50.826;6.896;2023-02-20T17:04:52;14.75;;;6.90;;
72132;SDS011;60008;50.826;6.896;2023-02-20T17:07:37;16.80;;;7.30;;
72132;SDS011;60008;50.826;6.896;2023-02-20T17:10:22;15.27;;;6.32;;
72132;SDS011;60008;50.826;6.896;2023-02-20T17:13:07;12.40;;;5.32;;
72132;SDS011;60008;50.826;6.896;2023-02-20T17:15:52;13.15;;;4.72;;
72132;SDS011;60008;50.826;6.896;2023-02-20T17:18:38;12.75;;;5.65;;
72132;SDS011;60008;50.826;6.896;2023-02-20T17:21:22;10.90;;;4.93;;
72132;SDS011;60008;50.826;6.896;2023-02-20T17:24:07;11.77;;;4.82;;
72132;SDS011;60008;50.826;6.896;2023-02-20T17:26:52;10.93;;;5.38;;
72132;SDS011;60008;50.826;6.896;2023-02-20T17:29:38;9.95;;;4.75;;
72132;SDS011;60008;50.826;6.896;2023-02-20T17:32:25;12.50;;;4.90;;
72132;SDS011;60008;50.826;6.896;2023-02-20T17:35:11;11.77;;;4.83;;
72132;SDS011;60008;50.826;6.896;2023-02-20T17:37:58;13.32;;;5.07;;
72132;SDS011;60008;50.826;6.896;2023-02-20T17:40:43;14.70;;;5.53;;
72132;SDS011;60008;50.826;6.896;2023-02-20T17:43:28;15.10;;;4.72;;
72132;SDS011;60008;50.826;6.896;2023-02-20T17:46:15;10.60;;;4.72;;
72132;SDS011;60008;50.826;6.896;2023-02-20T17:49:01;9.77;;;4.87;;
72132;SDS011;60008;50.826;6.896;2023-02-20T17:51:49;9.50;;;4.55;;
72132;SDS011;60008;50.826;6.896;2023-02-20T17:54:35;13.93;;;4.68;;
72132;SDS011;60008;50.826;6.896;2023-02-20T17:57:20;12.95;;;4.68;;
72132;SDS011;60008;50.826;6.896;2023-02-20T18:00:06;10.57;;;4.78;;
72132;SDS011;60008;50.826;6.896;2023-02-20T18:02:52;14.13;;;4.87;;
72132;SDS011;60008;50.826;6.896;2023-02-20T18:05:37;9.05;;;4.25;;
72132;SDS011;60008;50.826;6.896;2023-02-20T18:08:22;12.38;;;4.65;;
72132;SDS011;60008;50.826;6.896;2023-02-20T18:11:07;9.73;;;4.35;;
72132;SDS011;60008;50.826;6.896;2023-02-20T18:13:52;10.23;;;4.30;;
72132;SDS011;60008;50.826;6.896;2023-02-20T18:16:38;11.77;;;4.00;;
72132;SDS011;60008;50.826;6.896;2023-02-20T18:19:23;11.13;;;4.80;;
72132;SDS011;60008;50.826;6.896;2023-02-20T18:22:08;9.40;;;4.07;;
72132;SDS011;60008;50.826;6.896;2023-02-20T18:24:53;10.15;;;4.53;;
72132;SDS011;60008;50.826;6.896;2023-02-20T18:27:38;9.48;;;4.65;;
72132;SDS011;60008;50.826;6.896;2023-02-20T18:30:23;10.37;;;4.33;;
72132;SDS011;60008;50.826;6.896;2023-02-20T18:33:08;10.10;;;4.40;;
72132;SDS011;60008;50.826;6.896;2023-02-20T18:35:53;11.35;;;4.30;;
72132;SDS011;60008;50.826;6.896;2023-02-20T18:38:51;10.52;;;3.47;;
72132;SDS011;60008;50.826;6.896;2023-02-20T18:41:36;10.38;;;4.80;;